createdAt,value
2023-02-27T05:13:30.917Z,9.430319
2023-02-27T05:14:30.845Z,9.430350
2023-02-27T05:15:30.894Z,9.430358
2023-02-27T05:16:30.870Z,9.430326
2023-02-27T05:17:30.831Z,9.430293
2023-02-27T05:18:30.830Z,9.430300
2023-02-27T05:19:30.825Z,9.430286
2023-02-27T05:20:30.793Z,9.430284
2023-02-27T05:21:30.876Z,9.430280
2023-02-27T05:22:30.751Z,9.430310
2023-02-27T05:23:30.725Z,9.430297
2023-02-27T05:24:30.741Z,9.430291
2023-02-27T05:25:30.774Z,9.430292
2023-02-27T05:26:30.766Z,9.430256
2023-02-27T05:27:30.690Z,9.430294
2023-02-27T05:28:30.713Z,9.430326
2023-02-27T05:29:30.738Z,9.430290
2023-02-27T05:30:30.693Z,9.430287
2023-02-27T05:31:30.830Z,9.430303
2023-02-27T05:32:30.743Z,9.430282
2023-02-27T05:33:30.657Z,9.430282
2023-02-27T05:34:30.622Z,9.430261
2023-02-27T05:35:30.674Z,9.430249
2023-02-27T05:36:30.554Z,9.430291
2023-02-27T05:37:30.606Z,9.430274
2023-02-27T05:38:30.597Z,9.430265
2023-02-27T05:39:30.552Z,9.430248
2023-02-27T05:40:31.567Z,9.430239
2023-02-27T05:41:30.567Z,9.430235
2023-02-27T05:42:30.540Z,9.430304
2023-02-27T05:43:30.533Z,9.430281
2023-02-27T05:44:30.545Z,9.430253
2023-02-27T05:45:30.518Z,9.430294
2023-02-27T05:46:31.566Z,9.430299
2023-02-27T05:47:30.475Z,9.430291
2023-02-27T05:48:30.486Z,9.430337
2023-02-27T05:49:30.475Z,9.430291
2023-02-27T05:50:30.454Z,9.430290
2023-02-27T05:51:30.439Z,9.430294
2023-02-27T05:52:30.399Z,9.430323
2023-02-27T05:53:30.436Z,9.430342
2023-02-27T05:54:30.362Z,9.430368
2023-02-27T05:55:30.386Z,9.430304
2023-02-27T05:56:30.381Z,9.430334
2023-02-27T05:57:30.388Z,9.430274
2023-02-27T05:58:30.372Z,9.430248
2023-02-27T05:59:30.288Z,9.430335
2023-02-27T06:00:31.321Z,9.430356
2023-02-27T06:01:30.342Z,9.430304
2023-02-27T06:02:30.373Z,9.430381
2023-02-27T06:03:30.368Z,9.430393
2023-02-27T06:04:30.284Z,9.430370
2023-02-27T06:05:30.240Z,9.430392
2023-02-27T06:06:30.241Z,9.430348
2023-02-27T06:07:30.253Z,9.430320
2023-02-27T06:08:30.210Z,9.430324
2023-02-27T06:09:30.213Z,9.430279
2023-02-27T06:10:30.216Z,9.430254
2023-02-27T06:11:30.217Z,9.430296
2023-02-27T06:12:30.230Z,9.430341
2023-02-27T06:13:30.224Z,9.430339
2023-02-27T06:14:30.224Z,9.430387
2023-02-27T06:15:30.154Z,9.430385
2023-02-27T06:16:30.679Z,9.430359
2023-02-27T06:17:30.123Z,9.430286
2023-02-27T06:18:30.113Z,9.430307
2023-02-27T06:19:30.195Z,9.430296
2023-02-27T06:20:30.095Z,9.430225
2023-02-27T06:21:30.088Z,9.430316
2023-02-27T06:22:30.074Z,9.430349
2023-02-27T06:23:30.067Z,9.430332
2023-02-27T06:24:30.092Z,9.430347
2023-02-27T06:25:30.069Z,9.430320
2023-02-27T06:26:30.122Z,9.430380
2023-02-27T06:27:30.018Z,9.430422
2023-02-27T06:28:30.002Z,9.430385
2023-02-27T06:29:29.995Z,9.430367
2023-02-27T06:30:29.997Z,9.430317
2023-02-27T06:31:29.978Z,9.430360
2023-02-27T06:32:29.938Z,9.430408
2023-02-27T06:33:29.974Z,9.430367
2023-02-27T06:34:29.952Z,9.430282
2023-02-27T06:35:29.919Z,9.430367
2023-02-27T06:36:30.223Z,9.430314
2023-02-27T06:37:29.903Z,9.430277
2023-02-27T06:38:29.885Z,9.430297
2023-02-27T06:39:29.901Z,9.430310
2023-02-27T06:40:29.866Z,9.430309
2023-02-27T06:41:29.848Z,9.430328
2023-02-27T06:42:29.848Z,9.430330
2023-02-27T06:43:29.814Z,9.430298
2023-02-27T06:44:29.820Z,9.430325
2023-02-27T06:45:29.814Z,9.430312
2023-02-27T06:46:30.019Z,9.430311
2023-02-27T06:47:29.759Z,9.430287
2023-02-27T06:48:29.785Z,9.430281
2023-02-27T06:49:29.756Z,9.430309
2023-02-27T06:50:29.762Z,9.430359
2023-02-27T06:51:29.772Z,9.430346
2023-02-27T06:52:29.749Z,9.430283
2023-02-27T06:53:29.753Z,9.430326
2023-02-27T06:54:29.700Z,9.430311
2023-02-27T06:55:29.689Z,9.430354
2023-02-27T06:56:29.786Z,9.430331
2023-02-27T06:57:29.678Z,9.430309
2023-02-27T06:58:29.696Z,9.430320
2023-02-27T06:59:29.685Z,9.430296
2023-02-27T07:00:29.643Z,9.430298
2023-02-27T07:01:29.740Z,9.430199
2023-02-27T07:02:29.641Z,9.430266
2023-02-27T07:03:29.610Z,9.430339
2023-02-27T07:04:29.669Z,9.430359
2023-02-27T07:05:29.588Z,9.430317
2023-02-27T07:07:35.316Z,9.430295
2023-02-27T07:07:36.017Z,9.430299
2023-02-27T07:08:30.526Z,9.430343
2023-02-27T07:09:29.547Z,9.430351
2023-02-27T07:10:29.553Z,9.430356
2023-02-27T07:11:29.505Z,9.430365
2023-02-27T07:12:29.475Z,9.430382
2023-02-27T07:13:29.487Z,9.430424
2023-02-27T07:14:29.485Z,9.430302
2023-02-27T07:15:29.520Z,9.430380
2023-02-27T07:16:29.666Z,9.430425
2023-02-27T07:17:29.471Z,9.430355
2023-02-27T07:18:29.402Z,9.430385
2023-02-27T07:19:29.489Z,9.430336
2023-02-27T07:20:29.427Z,9.430360
2023-02-27T07:21:30.424Z,9.430356
2023-02-27T07:22:29.427Z,9.430339
2023-02-27T07:23:29.381Z,9.430367
2023-02-27T07:24:29.382Z,9.430348
2023-02-27T07:25:29.370Z,9.430362
2023-02-27T07:26:30.405Z,9.430340
2023-02-27T07:27:29.328Z,9.430333
2023-02-27T07:28:29.430Z,9.430312
2023-02-27T07:29:29.341Z,9.430330
2023-02-27T07:30:29.322Z,9.430325
2023-02-27T07:31:29.405Z,9.430361
2023-02-27T07:32:29.346Z,9.430391
2023-02-27T07:33:29.331Z,9.430329
2023-02-27T07:34:29.267Z,9.430323
2023-02-27T07:35:29.288Z,9.430326
2023-02-27T07:36:29.442Z,9.430354
2023-02-27T07:37:29.236Z,9.430415
2023-02-27T07:38:29.252Z,9.430417
2023-02-27T07:39:29.244Z,9.430350
2023-02-27T07:40:29.197Z,9.430367
2023-02-27T07:41:30.977Z,9.430360
2023-02-27T07:43:01.595Z,9.430324
2023-02-27T07:43:29.220Z,9.430314
2023-02-27T07:44:30.241Z,9.430297
2023-02-27T07:45:29.200Z,9.430314
2023-02-27T07:46:29.592Z,9.430339
2023-02-27T07:47:29.204Z,9.430365
2023-02-27T07:48:29.165Z,9.430355
2023-02-27T07:49:29.130Z,9.430337
2023-02-27T07:50:29.106Z,9.430340
2023-02-27T07:51:29.172Z,9.430305
2023-02-27T07:53:29.098Z,9.430324
2023-02-27T07:54:29.049Z,9.430327
2023-02-27T07:55:29.213Z,9.430320
2023-02-27T07:56:30.431Z,9.430344
2023-02-27T07:57:29.152Z,9.430296
2023-02-27T07:58:29.080Z,9.430280
2023-02-27T07:59:29.042Z,9.430293
2023-02-27T08:00:29.003Z,9.430316
2023-02-27T08:01:29.054Z,9.430295
2023-02-27T08:02:29.060Z,9.430323
2023-02-27T08:03:28.996Z,9.430380
2023-02-27T08:04:29.052Z,9.430359
2023-02-27T08:05:29.924Z,9.430327
2023-02-27T08:06:29.285Z,9.430302
2023-02-27T08:07:28.934Z,9.430290
2023-02-27T08:08:28.979Z,9.430347
2023-02-27T08:09:28.902Z,9.430343
2023-02-27T08:10:29.028Z,9.430388
2023-02-27T08:11:29.293Z,9.430365
2023-02-27T08:12:28.854Z,9.430394
2023-02-27T08:13:58.959Z,9.430348
2023-02-27T08:14:30.865Z,9.430351
2023-02-27T08:15:28.944Z,9.430368
2023-02-27T08:16:31.037Z,9.430338
2023-02-27T08:17:28.809Z,9.430323
2023-02-27T08:18:28.789Z,9.430326
2023-02-27T08:19:28.756Z,9.430335
2023-02-27T08:20:28.794Z,9.430340
2023-02-27T08:21:29.176Z,9.430316
2023-02-27T08:22:28.742Z,9.430346
2023-02-27T08:23:28.759Z,9.430349
2023-02-27T08:24:28.679Z,9.430326
2023-02-27T08:25:28.721Z,9.430316
2023-02-27T08:26:29.151Z,9.430323
2023-02-27T08:27:28.659Z,9.430292
2023-02-27T08:28:28.661Z,9.430285
2023-02-27T08:29:28.681Z,9.430297
2023-02-27T08:30:28.628Z,9.430292
2023-02-27T08:31:28.725Z,9.430315
2023-02-27T08:32:28.723Z,9.430302
2023-02-27T08:33:28.607Z,9.430276
2023-02-27T08:34:28.614Z,9.430300
2023-02-27T08:35:28.648Z,9.430326
2023-02-27T08:36:28.843Z,9.430316
2023-02-27T08:37:28.591Z,9.430331
2023-02-27T08:38:28.553Z,9.430307
2023-02-27T08:39:28.571Z,9.430324
2023-02-27T08:40:28.554Z,9.430305
2023-02-27T08:41:28.574Z,9.430307
2023-02-27T08:42:28.516Z,9.430310
2023-02-27T08:43:28.529Z,9.430290
2023-02-27T08:44:28.542Z,9.430304
2023-02-27T08:45:28.534Z,9.430305
2023-02-27T08:46:28.876Z,9.430308
2023-02-27T08:47:28.471Z,9.430310
2023-02-27T08:48:28.438Z,9.430308
2023-02-27T08:49:28.408Z,9.430316
2023-02-27T08:50:28.501Z,9.430305
2023-02-27T08:51:28.905Z,9.430319
2023-02-27T08:52:28.433Z,9.430311
2023-02-27T08:53:28.532Z,9.430320
2023-02-27T08:54:28.386Z,9.430333
2023-02-27T08:55:28.394Z,9.430321
2023-02-27T08:56:28.702Z,9.430318
2023-02-27T08:57:28.381Z,9.430334
2023-02-27T08:58:28.342Z,9.430317
2023-02-27T08:59:28.309Z,9.430347
2023-02-27T09:00:28.330Z,9.430342
2023-02-27T09:01:28.843Z,9.430350
2023-02-27T09:02:29.332Z,9.430328
2023-02-27T09:03:28.302Z,9.430346
2023-02-27T09:04:28.277Z,9.430334
2023-02-27T09:05:28.295Z,9.430338
2023-02-27T09:06:28.588Z,9.430285
2023-02-27T09:07:28.251Z,9.430339
2023-02-27T09:08:28.298Z,9.430326
2023-02-27T09:09:28.262Z,9.430338
2023-02-27T09:10:28.238Z,9.430375
2023-02-27T09:11:28.521Z,9.430345
2023-02-27T09:12:28.188Z,9.430327
2023-02-27T09:13:28.188Z,9.430316
2023-02-27T09:14:28.132Z,9.430303
2023-02-27T09:15:28.957Z,9.430277
2023-02-27T09:16:28.656Z,9.430321
2023-02-27T09:17:28.189Z,9.430342
2023-02-27T09:18:28.140Z,9.430384
2023-02-27T09:19:29.441Z,9.430295
2023-02-27T09:20:29.693Z,9.430327
2023-02-27T09:21:28.635Z,9.430327
2023-02-27T09:22:28.600Z,9.430361
2023-02-27T09:23:28.446Z,9.430375
2023-02-27T09:24:28.009Z,9.430348
2023-02-27T09:25:28.055Z,9.430318
2023-02-27T09:26:41.977Z,9.430348
2023-02-27T09:27:29.999Z,9.430324
2023-02-27T09:28:27.971Z,9.430347
2023-02-27T09:29:27.960Z,9.430320
2023-02-27T09:30:28.810Z,9.430342
2023-02-27T09:31:30.001Z,9.430362
2023-02-27T09:32:28.292Z,9.430332
2023-02-27T09:33:29.245Z,9.430315
2023-02-27T09:34:28.973Z,9.430324
2023-02-27T09:35:28.005Z,9.430340
2023-02-27T09:36:28.279Z,9.430352
2023-02-27T09:37:27.986Z,9.430356
2023-02-27T09:38:27.916Z,9.430344
2023-02-27T09:39:27.996Z,9.430326
2023-02-27T09:40:27.881Z,9.430346
2023-02-27T09:41:28.270Z,9.430351
2023-02-27T09:42:27.875Z,9.430367
2023-02-27T09:43:27.891Z,9.430355
2023-02-27T09:44:43.509Z,9.430319
2023-02-27T09:45:31.269Z,9.430356
2023-02-27T09:46:28.191Z,9.430314
2023-02-27T09:47:27.825Z,9.430306
2023-02-27T09:48:28.597Z,9.430337
2023-02-27T09:49:27.835Z,9.430381
2023-02-27T09:50:27.869Z,9.430346
2023-02-27T09:51:28.475Z,9.430367
2023-02-27T09:52:27.792Z,9.430372
2023-02-27T09:53:27.771Z,9.430320
2023-02-27T09:54:28.055Z,9.430334
2023-02-27T09:55:28.715Z,9.430373
2023-02-27T09:56:28.338Z,9.430389
2023-02-27T09:57:27.890Z,9.430359
2023-02-27T09:58:28.441Z,9.430333
2023-02-27T09:59:27.963Z,9.430335
2023-02-27T10:00:27.938Z,9.430357
2023-02-27T10:01:29.691Z,9.430345
2023-02-27T10:02:29.201Z,9.430394
2023-02-27T10:03:28.289Z,9.430329
2023-02-27T10:04:28.690Z,9.430353
2023-02-27T10:05:29.355Z,9.430349
2023-02-27T10:06:29.936Z,9.430339
2023-02-27T10:07:29.334Z,9.430336
2023-02-27T10:08:27.849Z,9.430314
2023-02-27T10:09:28.711Z,9.430344
2023-02-27T10:10:27.880Z,9.430326
2023-02-27T10:11:27.657Z,9.430343
2023-02-27T10:12:27.509Z,9.430386
2023-02-27T10:13:27.617Z,9.430424
2023-02-27T10:14:27.569Z,9.430325
2023-02-27T10:15:27.618Z,9.430420
2023-02-27T10:16:27.957Z,9.430345
2023-02-27T10:17:28.433Z,9.430351
2023-02-27T10:18:29.788Z,9.430378
2023-02-27T10:19:29.489Z,9.430416
2023-02-27T10:20:29.423Z,9.430413
2023-02-27T10:21:36.061Z,9.430472
2023-02-27T10:22:29.815Z,9.430388
2023-02-27T10:23:27.454Z,9.430300
2023-02-27T10:24:27.705Z,9.430233
2023-02-27T10:25:32.020Z,9.430281
2023-02-27T10:26:28.492Z,9.430310
2023-02-27T10:27:27.661Z,9.430310
2023-02-27T10:28:28.411Z,9.430353
2023-02-27T10:29:27.510Z,9.430293
2023-02-27T10:30:34.954Z,9.430316
2023-02-27T10:31:30.230Z,9.430278
2023-02-27T10:32:27.414Z,9.430306
2023-02-27T10:33:28.440Z,9.430290
2023-02-27T10:34:28.474Z,9.430299
2023-02-27T10:35:27.642Z,9.430315
2023-02-27T10:36:34.157Z,9.430304
2023-02-27T10:37:29.488Z,9.430284
2023-02-27T10:38:27.419Z,9.430311
2023-02-27T10:39:27.333Z,9.430304
2023-02-27T10:40:27.377Z,9.430301
2023-02-27T10:41:29.582Z,9.430285
2023-02-27T10:42:27.304Z,9.430305
2023-02-27T10:43:27.164Z,9.430326
2023-02-27T10:44:27.278Z,9.430325
2023-02-27T10:45:27.297Z,9.430279
2023-02-27T10:46:27.924Z,9.430326
2023-02-27T10:47:27.335Z,9.430344
2023-02-27T10:48:27.380Z,9.430319
2023-02-27T10:49:27.730Z,9.430330
2023-02-27T10:50:27.431Z,9.430331
2023-02-27T10:51:27.436Z,9.430348
2023-02-27T10:52:27.145Z,9.430368
2023-02-27T10:53:27.694Z,9.430390
2023-02-27T10:54:27.273Z,9.430355
2023-02-27T10:55:27.141Z,9.430334
2023-02-27T10:56:27.482Z,9.430320
2023-02-27T10:57:28.331Z,9.430341
2023-02-27T10:58:28.479Z,9.430356
2023-02-27T10:59:27.102Z,9.430351
2023-02-27T11:00:27.273Z,9.430355
2023-02-27T11:01:27.541Z,9.430355
2023-02-27T11:02:27.041Z,9.430323
2023-02-27T11:03:27.419Z,9.430337
2023-02-27T11:04:27.094Z,9.430318
2023-02-27T11:05:27.177Z,9.430287
2023-02-27T11:06:26.951Z,9.430284
2023-02-27T11:07:27.167Z,9.430225
2023-02-27T11:08:27.307Z,9.430254
2023-02-27T11:09:26.968Z,9.430250
2023-02-27T11:10:26.994Z,9.430264
2023-02-27T11:11:27.387Z,9.430332
2023-02-27T11:12:26.879Z,9.430273
2023-02-27T11:13:26.852Z,9.430312
2023-02-27T11:14:26.843Z,9.430339
2023-02-27T11:15:27.112Z,9.430293
2023-02-27T11:16:26.885Z,9.430289
2023-02-27T11:17:26.888Z,9.430283
2023-02-27T11:18:26.970Z,9.430316
2023-02-27T11:19:27.030Z,9.430252
2023-02-27T11:20:26.939Z,9.430285
2023-02-27T11:21:27.329Z,9.430291
2023-02-27T11:22:26.754Z,9.430264
2023-02-27T11:23:26.968Z,9.430318
2023-02-27T11:24:26.816Z,9.430326
2023-02-27T11:25:26.803Z,9.430321
2023-02-27T11:26:26.848Z,9.430299
2023-02-27T11:27:26.803Z,9.430305
2023-02-27T11:28:26.723Z,9.430287
2023-02-27T11:29:26.657Z,9.430280
2023-02-27T11:30:26.635Z,9.430276
2023-02-27T11:31:27.170Z,9.430308
2023-02-27T11:32:26.753Z,9.430290
2023-02-27T11:33:26.680Z,9.430277
2023-02-27T11:34:26.671Z,9.430290
2023-02-27T11:35:26.610Z,9.430247
2023-02-27T11:36:26.615Z,9.430315
2023-02-27T11:37:26.612Z,9.430306
2023-02-27T11:38:26.571Z,9.430298
2023-02-27T11:39:26.602Z,9.430319
2023-02-27T11:40:26.551Z,9.430285
2023-02-27T11:41:26.854Z,9.430279
2023-02-27T11:42:26.568Z,9.430222
2023-02-27T11:43:26.658Z,9.430285
2023-02-27T11:44:50.274Z,9.430308
2023-02-27T11:46:13.911Z,9.430277
2023-02-27T11:46:43.273Z,9.430258
2023-02-27T11:47:27.662Z,9.430251
2023-02-27T11:48:26.456Z,9.430277
2023-02-27T11:49:26.411Z,9.430270
2023-02-27T11:50:26.519Z,9.430241
2023-02-27T11:51:26.795Z,9.430243
2023-02-27T11:52:27.415Z,9.430265
2023-02-27T11:53:26.413Z,9.430280
2023-02-27T11:54:26.416Z,9.430289
2023-02-27T11:55:26.399Z,9.430232
2023-02-27T11:56:26.408Z,9.430254
2023-02-27T11:57:26.518Z,9.430261
2023-02-27T11:58:26.420Z,9.430287
2023-02-27T11:59:26.481Z,9.430262
2023-02-27T12:00:26.374Z,9.430283
2023-02-27T12:01:26.475Z,9.430281
2023-02-27T12:02:26.425Z,9.430285
2023-02-27T12:03:26.256Z,9.430275
2023-02-27T12:04:26.256Z,9.430238
2023-02-27T12:05:26.248Z,9.430255
2023-02-27T12:06:26.288Z,9.430280
2023-02-27T12:07:26.180Z,9.430250
2023-02-27T12:08:26.246Z,9.430285
2023-02-27T12:09:26.268Z,9.430259
2023-02-27T12:10:26.219Z,9.430231
2023-02-27T12:11:26.155Z,9.430266
2023-02-27T12:12:26.192Z,9.430271
2023-02-27T12:13:26.226Z,9.430272
2023-02-27T12:14:26.163Z,9.430292
2023-02-27T12:15:26.114Z,9.430275
2023-02-27T12:16:26.693Z,9.430311
2023-02-27T12:17:26.172Z,9.430299
2023-02-27T12:18:26.140Z,9.430284
2023-02-27T12:19:26.085Z,9.430252
2023-02-27T12:20:26.198Z,9.430274
2023-02-27T12:21:26.108Z,9.430280
2023-02-27T12:22:26.054Z,9.430317
2023-02-27T12:23:26.041Z,9.430340
2023-02-27T12:24:26.118Z,9.430340
2023-02-27T12:25:26.051Z,9.430264
2023-02-27T12:26:26.499Z,9.430290
2023-02-27T12:27:26.234Z,9.430308
2023-02-27T12:28:26.052Z,9.430281
2023-02-27T12:29:25.962Z,9.430280
2023-02-27T12:30:26.372Z,9.430301
2023-02-27T12:31:26.597Z,9.430260
2023-02-27T12:32:26.181Z,9.430320
2023-02-27T12:33:26.131Z,9.430277
2023-02-27T12:34:25.994Z,9.430255
2023-02-27T12:35:26.286Z,9.430233
2023-02-27T12:36:25.921Z,9.430247
2023-02-27T12:37:25.943Z,9.430308
2023-02-27T12:38:25.930Z,9.430286
2023-02-27T12:39:25.880Z,9.430261
2023-02-27T12:40:25.857Z,9.430268
2023-02-27T12:41:26.291Z,9.430270
2023-02-27T12:42:25.858Z,9.430271
2023-02-27T12:43:25.885Z,9.430281
2023-02-27T12:44:25.804Z,9.430275
2023-02-27T12:45:25.994Z,9.430262
2023-02-27T12:46:25.803Z,9.430255
2023-02-27T12:47:25.771Z,9.430259
2023-02-27T12:48:25.799Z,9.430285
2023-02-27T12:49:25.715Z,9.430277
2023-02-27T12:50:25.793Z,9.430296
2023-02-27T12:51:26.192Z,9.430292
2023-02-27T12:52:26.091Z,9.430259
2023-02-27T12:53:25.792Z,9.430321
2023-02-27T12:54:25.946Z,9.430305
2023-02-27T12:55:26.094Z,9.430354
2023-02-27T12:56:25.670Z,9.430389
2023-02-27T12:57:25.737Z,9.430359
2023-02-27T12:58:25.698Z,9.430354
2023-02-27T12:59:25.751Z,9.430369
2023-02-27T13:00:25.608Z,9.430346
2023-02-27T13:01:26.268Z,9.430304
2023-02-27T13:02:25.757Z,9.430319
2023-02-27T13:03:25.661Z,9.430352
2023-02-27T13:04:25.582Z,9.430350
2023-02-27T13:05:25.898Z,9.430306
2023-02-27T13:06:25.655Z,9.430304
2023-02-27T13:07:25.808Z,9.430312
2023-02-27T13:08:25.612Z,9.430334
2023-02-27T13:09:25.722Z,9.430294
2023-02-27T13:10:26.637Z,9.430235
2023-02-27T13:11:26.293Z,9.430282
2023-02-27T13:12:27.005Z,9.430316
2023-02-27T13:13:25.909Z,9.430333
2023-02-27T13:14:25.774Z,9.430333
2023-02-27T13:15:25.513Z,9.430346
2023-02-27T13:16:25.765Z,9.430310
2023-02-27T13:17:25.479Z,9.430329
2023-02-27T13:18:25.543Z,9.430307
2023-02-27T13:19:25.478Z,9.430363
2023-02-27T13:20:25.602Z,9.430380
2023-02-27T13:21:25.632Z,9.430352
2023-02-27T13:22:25.451Z,9.430276
2023-02-27T13:23:25.406Z,9.430310
2023-02-27T13:24:25.423Z,9.430320
2023-02-27T13:25:25.384Z,9.430342
2023-02-27T13:26:25.380Z,9.430306
2023-02-27T13:27:25.378Z,9.430317
2023-02-27T13:28:25.562Z,9.430300
2023-02-27T13:29:25.397Z,9.430305
2023-02-27T13:30:25.267Z,9.430291
2023-02-27T13:31:25.412Z,9.430322
2023-02-27T13:32:36.536Z,9.430302
2023-02-27T13:33:27.316Z,9.430346
2023-02-27T13:34:25.320Z,9.430350
2023-02-27T13:35:25.286Z,9.430346
2023-02-27T13:36:25.236Z,9.430338
2023-02-27T13:37:25.715Z,9.430338
2023-02-27T13:38:25.218Z,9.430326
2023-02-27T13:39:25.264Z,9.430353
2023-02-27T13:40:25.300Z,9.430347
2023-02-27T13:41:25.231Z,9.430348
2023-02-27T13:42:25.224Z,9.430345
2023-02-27T13:43:25.189Z,9.430301
2023-02-27T13:44:25.164Z,9.430306
2023-02-27T13:45:25.126Z,9.430299
2023-02-27T13:46:25.310Z,9.430339
2023-02-27T13:47:25.115Z,9.430342
2023-02-27T13:48:25.116Z,9.430334
2023-02-27T13:49:29.243Z,9.430327
2023-02-27T13:50:26.036Z,9.430345
2023-02-27T13:51:25.337Z,9.430304
2023-02-27T13:52:25.035Z,9.430327
2023-02-27T13:53:25.049Z,9.430333
2023-02-27T13:54:25.180Z,9.430321
2023-02-27T13:55:25.081Z,9.430317
2023-02-27T13:56:25.073Z,9.430359
2023-02-27T13:57:25.089Z,9.430323
2023-02-27T13:58:24.995Z,9.430318
2023-02-27T13:59:24.957Z,9.430294
2023-02-27T14:00:25.039Z,9.430340
2023-02-27T14:01:25.057Z,9.430328
2023-02-27T14:02:25.027Z,9.430360
2023-02-27T14:03:24.973Z,9.430338
2023-02-27T14:04:24.941Z,9.430324
2023-02-27T14:05:25.014Z,9.430339
2023-02-27T14:06:24.897Z,9.430353
2023-02-27T14:07:24.890Z,9.430402
2023-02-27T14:08:24.947Z,9.430322
2023-02-27T14:09:24.859Z,9.430309
2023-02-27T14:10:24.913Z,9.430349
2023-02-27T14:11:24.912Z,9.430316
2023-02-27T14:12:27.088Z,9.430290
2023-02-27T14:13:24.877Z,9.430309
2023-02-27T14:14:24.909Z,9.430305
2023-02-27T14:15:24.825Z,9.430326
2023-02-27T14:16:24.829Z,9.430323
2023-02-27T14:17:24.783Z,9.430294
2023-02-27T14:18:33.594Z,9.430295
2023-02-27T14:19:27.005Z,9.430309
2023-02-27T14:20:24.739Z,9.430320
2023-02-27T14:21:25.076Z,9.430367
2023-02-27T14:22:24.747Z,9.430317
2023-02-27T14:23:24.753Z,9.430320
2023-02-27T14:24:24.648Z,9.430298
2023-02-27T14:25:24.701Z,9.430310
2023-02-27T14:26:24.846Z,9.430345
2023-02-27T14:27:24.711Z,9.430340
2023-02-27T14:28:24.732Z,9.430366
2023-02-27T14:29:24.767Z,9.430313
2023-02-27T14:30:24.576Z,9.430300
2023-02-27T14:31:24.647Z,9.430308
2023-02-27T14:32:24.678Z,9.430292
2023-02-27T14:33:39.172Z,9.430341
2023-02-27T14:34:26.561Z,9.430341
2023-02-27T14:35:24.662Z,9.430341
2023-02-27T14:36:24.619Z,9.430336
2023-02-27T14:37:24.564Z,9.430323
2023-02-27T14:38:24.579Z,9.430296
2023-02-27T14:39:24.583Z,9.430276
2023-02-27T14:40:29.684Z,9.430336
2023-02-27T14:41:26.754Z,9.430393
2023-02-27T14:42:24.548Z,9.430341
2023-02-27T14:43:24.432Z,9.430350
2023-02-27T14:44:24.427Z,9.430356
2023-02-27T14:45:24.679Z,9.430343
2023-02-27T14:46:24.499Z,9.430350
2023-02-27T14:47:24.437Z,9.430359
2023-02-27T14:48:24.442Z,9.430333
2023-02-27T14:49:24.405Z,9.430292
2023-02-27T14:50:24.427Z,9.430338
2023-02-27T14:51:24.393Z,9.430366
2023-02-27T14:52:24.385Z,9.430327
2023-02-27T14:53:24.422Z,9.430303
2023-02-27T14:54:24.376Z,9.430306
2023-02-27T14:55:24.376Z,9.430307
2023-02-27T14:56:24.326Z,9.430319
2023-02-27T14:57:25.738Z,9.430287
2023-02-27T14:58:24.339Z,9.430225
2023-02-27T14:59:24.320Z,9.430303
2023-02-27T15:00:24.284Z,9.430388
2023-02-27T15:01:24.326Z,9.430339
2023-02-27T15:02:24.296Z,9.430275
2023-02-27T15:03:24.316Z,9.430353
2023-02-27T15:04:24.326Z,9.430358
2023-02-27T15:05:24.277Z,9.430359
2023-02-27T15:06:24.239Z,9.430458
2023-02-27T15:07:24.197Z,9.430565
2023-02-27T15:08:24.168Z,9.430440
2023-02-27T15:09:24.177Z,9.430384
2023-02-27T15:10:24.950Z,9.430391
2023-02-27T15:11:24.179Z,9.430356
2023-02-27T15:12:25.147Z,9.430367
2023-02-27T15:13:24.206Z,9.430416
2023-02-27T15:14:24.200Z,9.430367
2023-02-27T15:15:24.191Z,9.430378
2023-02-27T15:16:24.162Z,9.430456
2023-02-27T15:17:24.055Z,9.430329
2023-02-27T15:18:24.058Z,9.430419
2023-02-27T15:19:24.042Z,9.430408
2023-02-27T15:20:24.075Z,9.430401
2023-02-27T15:21:24.080Z,9.430429
2023-02-27T15:22:38.042Z,9.430352
2023-02-27T15:23:26.056Z,9.430452
2023-02-27T15:24:24.092Z,9.430327
2023-02-27T15:25:24.021Z,9.430297
2023-02-27T15:26:23.970Z,9.430324
2023-02-27T15:27:24.013Z,9.430382
2023-02-27T15:28:23.952Z,9.430382
2023-02-27T15:29:23.956Z,9.430319
2023-02-27T15:30:23.958Z,9.430346
2023-02-27T15:31:24.189Z,9.430347
2023-02-27T15:32:23.956Z,9.430353
2023-02-27T15:33:23.890Z,9.430358
2023-02-27T15:34:23.875Z,9.430317
2023-02-27T15:35:23.941Z,9.430357
2023-02-27T15:36:23.915Z,9.430344
2023-02-27T15:37:23.879Z,9.430303
2023-02-27T15:38:23.871Z,9.430351
2023-02-27T15:39:23.827Z,9.430369
2023-02-27T15:40:23.863Z,9.430353
2023-02-27T15:41:23.868Z,9.430339
2023-02-27T15:42:23.790Z,9.430352
2023-02-27T15:43:23.798Z,9.430326
2023-02-27T15:44:23.796Z,9.430307
2023-02-27T15:45:23.777Z,9.430351
2023-02-27T15:46:23.759Z,9.430306
2023-02-27T15:47:23.775Z,9.430335
2023-02-27T15:48:23.753Z,9.430366
2023-02-27T15:49:23.731Z,9.430298
2023-02-27T15:50:23.700Z,9.430346
2023-02-27T15:51:23.696Z,9.430388
2023-02-27T15:52:23.701Z,9.430396
2023-02-27T15:53:23.646Z,9.430330
2023-02-27T15:54:23.802Z,9.430408
2023-02-27T15:55:23.648Z,9.430371
2023-02-27T15:56:23.624Z,9.430339
2023-02-27T15:57:23.642Z,9.430365
2023-02-27T15:58:23.635Z,9.430439
2023-02-27T15:59:23.612Z,9.430427
2023-02-27T16:00:23.615Z,9.430376
2023-02-27T16:01:23.717Z,9.430326
2023-02-27T16:02:23.579Z,9.430370
2023-02-27T16:03:23.603Z,9.430343
2023-02-27T16:04:23.487Z,9.430307
2023-02-27T16:05:23.529Z,9.430345
2023-02-27T16:06:23.618Z,9.430365
2023-02-27T16:07:24.571Z,9.430303
2023-02-27T16:08:23.508Z,9.430329
2023-02-27T16:09:23.447Z,9.430332
2023-02-27T16:10:23.524Z,9.430318
2023-02-27T16:11:23.483Z,9.430352
2023-02-27T16:12:23.509Z,9.430362
2023-02-27T16:13:23.475Z,9.430419
2023-02-27T16:14:25.558Z,9.430368
2023-02-27T16:15:23.370Z,9.430367
2023-02-27T16:16:23.442Z,9.430400
2023-02-27T16:17:23.441Z,9.430357
2023-02-27T16:18:23.442Z,9.430353
2023-02-27T16:19:23.480Z,9.430370
2023-02-27T16:20:23.397Z,9.430367
2023-02-27T16:21:23.388Z,9.430438
2023-02-27T16:22:23.367Z,9.430358
2023-02-27T16:23:23.372Z,9.430410
2023-02-27T16:24:23.375Z,9.430448
2023-02-27T16:25:23.310Z,9.430395
2023-02-27T16:26:23.323Z,9.430327
2023-02-27T16:27:23.375Z,9.430316
2023-02-27T16:28:23.282Z,9.430263
2023-02-27T16:29:23.317Z,9.430372
2023-02-27T16:30:23.262Z,9.430419
2023-02-27T16:31:23.291Z,9.430360
2023-02-27T16:32:23.273Z,9.430306
2023-02-27T16:33:23.252Z,9.430409
2023-02-27T16:34:24.667Z,9.430423
2023-02-27T16:35:23.243Z,9.430245
2023-02-27T16:36:23.319Z,9.430260
2023-02-27T16:37:23.249Z,9.430363
2023-02-27T16:38:23.141Z,9.430345
2023-02-27T16:39:23.272Z,9.430379
2023-02-27T16:40:23.272Z,9.430329
2023-02-27T16:41:23.323Z,9.430361
2023-02-27T16:42:23.148Z,9.430303
2023-02-27T16:43:23.080Z,9.430328
2023-02-27T16:44:23.074Z,9.430364
2023-02-27T16:45:23.141Z,9.430295
2023-02-27T16:46:23.081Z,9.430316
2023-02-27T16:47:23.090Z,9.430318
2023-02-27T16:48:23.097Z,9.430386
2023-02-27T16:49:23.055Z,9.430301
2023-02-27T16:50:23.076Z,9.430297
2023-02-27T16:51:23.045Z,9.430331
2023-02-27T16:52:22.977Z,9.430294
2023-02-27T16:53:23.003Z,9.430305
2023-02-27T16:54:22.981Z,9.430326
2023-02-27T16:55:23.888Z,9.430294
2023-02-27T16:56:35.902Z,9.430290
2023-02-27T16:57:24.986Z,9.430285
2023-02-27T16:58:23.026Z,9.430286